createdAt,value
2023-03-28T00:01:08.285Z,1.20
2023-03-28T00:03:39.428Z,1.00
2023-03-28T00:06:11.219Z,1.13
2023-03-28T00:08:40.260Z,1.30
2023-03-28T00:11:18.961Z,1.23
2023-03-28T00:13:53.707Z,1.20
2023-03-28T00:16:21.731Z,1.27
2023-03-28T00:18:51.065Z,1.30
2023-03-28T00:21:29.281Z,1.25
2023-03-28T00:24:03.076Z,1.40
2023-03-28T00:26:33.216Z,1.10
2023-03-28T00:29:01.947Z,1.10
2023-03-28T00:31:30.811Z,1.30
2023-03-28T00:33:58.452Z,1.55
2023-03-28T00:36:29.590Z,1.38
2023-03-28T00:38:58.097Z,1.40
2023-03-28T00:41:31.238Z,1.15
2023-03-28T00:44:00.301Z,1.63
2023-03-28T00:46:39.061Z,1.60
2023-03-28T00:49:23.547Z,1.30
2023-03-28T00:51:57.171Z,1.30
2023-03-28T00:54:28.205Z,1.38
2023-03-28T00:57:00.150Z,1.50
2023-03-28T00:59:31.187Z,1.33
2023-03-28T01:01:59.241Z,1.25
2023-03-28T01:04:36.591Z,1.33
2023-03-28T01:07:05.465Z,1.20
2023-03-28T01:09:36.411Z,1.38
2023-03-28T01:12:04.566Z,1.30
2023-03-28T01:14:33.185Z,1.10
2023-03-28T01:17:03.607Z,0.98
2023-03-28T01:19:44.288Z,1.10
2023-03-28T01:22:56.902Z,0.80
2023-03-28T01:25:44.242Z,0.90
2023-03-28T01:28:42.217Z,1.15
2023-03-28T01:31:34.735Z,0.90
2023-03-28T01:34:19.664Z,1.20
2023-03-28T01:37:10.512Z,0.77
2023-03-28T01:40:11.066Z,1.17
2023-03-28T01:43:07.831Z,0.98
2023-03-28T01:45:59.895Z,1.40
2023-03-28T01:49:00.044Z,1.10
2023-03-28T01:52:19.037Z,1.38
2023-03-28T01:55:09.797Z,1.02
2023-03-28T01:58:05.231Z,1.25
2023-03-28T02:00:46.006Z,1.10
2023-03-28T02:03:25.345Z,1.40
2023-03-28T02:06:09.066Z,1.23
2023-03-28T02:08:41.206Z,1.40
2023-03-28T02:11:27.169Z,1.20
2023-03-28T02:14:20.991Z,1.23
2023-03-28T02:17:15.618Z,1.40
2023-03-28T02:20:09.091Z,1.10
2023-03-28T02:23:11.900Z,1.50
2023-03-28T02:25:49.198Z,1.48
2023-03-28T02:28:44.279Z,1.20
2023-03-28T02:31:36.225Z,1.50
2023-03-28T02:34:03.820Z,1.70
2023-03-28T02:36:57.512Z,1.23
2023-03-28T02:39:59.543Z,1.38
2023-03-28T02:42:30.006Z,1.25
2023-03-28T02:45:00.699Z,1.27
2023-03-28T02:48:09.150Z,1.30
2023-03-28T02:50:41.170Z,1.42
2023-03-28T02:56:00.371Z,1.10
2023-03-28T02:58:54.972Z,1.10
2023-03-28T03:01:29.228Z,0.98
2023-03-28T03:03:58.682Z,0.80
2023-03-28T03:06:26.240Z,0.98
2023-03-28T03:08:53.768Z,1.00
2023-03-28T03:11:25.111Z,1.13
2023-03-28T03:13:52.532Z,0.98
2023-03-28T03:16:20.707Z,1.30
2023-03-28T03:18:48.487Z,1.13
2023-03-28T03:21:16.852Z,0.90
2023-03-28T03:23:44.330Z,0.90
2023-03-28T03:26:11.998Z,1.13
2023-03-28T03:28:46.213Z,1.20
2023-03-28T03:31:13.825Z,1.23
2023-03-28T03:34:01.870Z,0.90
2023-03-28T03:36:33.560Z,1.20
2023-03-28T03:39:01.577Z,1.08
2023-03-28T03:41:29.702Z,1.27
2023-03-28T03:43:57.239Z,1.13
2023-03-28T03:46:24.769Z,1.40
2023-03-28T03:48:53.563Z,1.80
2023-03-28T03:51:21.131Z,1.63
2023-03-28T03:53:51.947Z,1.60
2023-03-28T03:56:22.892Z,1.75
2023-03-28T03:58:56.499Z,1.38
2023-03-28T04:01:30.302Z,1.42
2023-03-28T04:04:09.794Z,1.40
2023-03-28T04:06:59.126Z,1.30
2023-03-28T04:09:27.373Z,2.50
2023-03-28T04:11:59.712Z,2.67
2023-03-28T04:14:27.918Z,2.20
2023-03-28T04:17:16.270Z,2.47
2023-03-28T04:19:45.830Z,2.80
2023-03-28T04:22:13.887Z,2.00
2023-03-28T04:24:49.968Z,1.88
2023-03-28T04:27:31.289Z,1.80
2023-03-28T04:30:00.646Z,1.85
2023-03-28T04:32:58.800Z,1.80
2023-03-28T04:35:29.820Z,1.90
2023-03-28T04:38:00.131Z,1.48
2023-03-28T04:40:28.301Z,1.73
2023-03-28T04:43:21.312Z,1.80
2023-03-28T04:45:53.636Z,1.50
2023-03-28T04:48:23.813Z,1.50
2023-03-28T04:50:51.976Z,2.22
2023-03-28T04:53:19.484Z,2.15
2023-03-28T04:56:13.802Z,1.92
2023-03-28T04:58:41.790Z,1.90
2023-03-28T05:01:10.569Z,1.98
2023-03-28T05:04:17.799Z,2.63
2023-03-28T05:06:46.598Z,1.83
2023-03-28T05:09:16.504Z,1.77
2023-03-28T05:11:44.730Z,1.55
2023-03-28T05:14:12.574Z,2.35
2023-03-28T05:16:47.710Z,1.90
2023-03-28T05:19:33.569Z,1.88
2023-03-28T05:22:11.427Z,1.88
2023-03-28T05:24:42.314Z,2.10
2023-03-28T05:27:21.701Z,2.67
2023-03-28T05:29:49.117Z,2.17
2023-03-28T05:32:18.003Z,2.20
2023-03-28T05:34:46.797Z,1.60
2023-03-28T05:37:14.300Z,2.00
2023-03-28T05:39:53.498Z,2.28
2023-03-28T05:42:21.261Z,2.28
2023-03-28T05:44:49.172Z,2.65
2023-03-28T05:47:34.545Z,2.28
2023-03-28T05:50:03.036Z,2.00
2023-03-28T05:52:30.966Z,2.13
2023-03-28T05:54:58.368Z,1.73
2023-03-28T05:57:26.266Z,2.03
2023-03-28T05:59:54.559Z,2.15
2023-03-28T06:02:24.411Z,7.38
2023-03-28T06:04:58.054Z,7.32
2023-03-28T06:07:39.204Z,3.90
2023-03-28T06:10:09.892Z,2.85
2023-03-28T06:12:38.341Z,3.08
2023-03-28T06:15:08.096Z,3.47
2023-03-28T06:17:39.816Z,2.72
2023-03-28T06:20:09.913Z,2.20
2023-03-28T06:22:38.434Z,2.28
2023-03-28T06:25:09.517Z,3.10
2023-03-28T06:27:37.162Z,3.20
2023-03-28T06:30:05.378Z,2.58
2023-03-28T06:32:39.921Z,2.65
2023-03-28T06:35:08.235Z,2.67
2023-03-28T06:37:35.731Z,2.45
2023-03-28T06:40:08.686Z,2.85
2023-03-28T06:42:36.802Z,2.45
2023-03-28T06:45:22.237Z,2.33
2023-03-28T06:47:58.109Z,2.20
2023-03-28T06:50:40.228Z,2.28
2023-03-28T06:53:11.438Z,1.80
2023-03-28T06:55:38.866Z,2.10
2023-03-28T06:58:06.819Z,2.67
2023-03-28T07:00:45.961Z,2.17
2023-03-28T07:03:32.333Z,2.78
2023-03-28T07:06:04.542Z,2.47
2023-03-28T07:08:32.911Z,2.50
2023-03-28T07:11:00.949Z,2.47
2023-03-28T07:13:29.491Z,2.75
2023-03-28T07:16:06.079Z,3.35
2023-03-28T07:18:34.738Z,3.28
2023-03-28T07:21:14.001Z,3.15
2023-03-28T07:23:42.543Z,3.13
2023-03-28T07:26:14.004Z,3.20
2023-03-28T07:28:41.642Z,3.60
2023-03-28T07:31:09.645Z,2.95
2023-03-28T07:33:38.581Z,2.38
2023-03-28T07:36:13.989Z,2.83
2023-03-28T07:38:44.071Z,2.72
2023-03-28T07:41:12.929Z,3.45
2023-03-28T07:43:40.556Z,3.13
2023-03-28T07:46:11.449Z,3.00
2023-03-28T07:48:40.798Z,3.22
2023-03-28T07:51:10.249Z,4.22
2023-03-28T07:53:38.060Z,3.17
2023-03-28T07:56:11.792Z,3.38
2023-03-28T07:59:05.586Z,3.70
2023-03-28T08:01:33.456Z,2.70
2023-03-28T08:04:03.580Z,3.22
2023-03-28T08:06:58.388Z,3.05
2023-03-28T08:09:25.920Z,2.97
2023-03-28T08:12:13.648Z,1.92
2023-03-28T08:14:43.454Z,2.85
2023-03-28T08:17:10.986Z,2.50
2023-03-28T08:19:38.495Z,2.40
2023-03-28T08:22:12.475Z,2.33
2023-03-28T08:25:03.112Z,2.88
2023-03-28T08:27:30.722Z,2.53
2023-03-28T08:30:07.762Z,2.85
2023-03-28T08:32:38.645Z,3.67
2023-03-28T08:35:07.080Z,3.63
2023-03-28T08:37:34.812Z,4.70
2023-03-28T08:40:07.080Z,3.67
2023-03-28T08:43:01.699Z,3.85
2023-03-28T08:45:51.852Z,3.78
2023-03-28T08:48:32.428Z,3.00
2023-03-28T08:51:00.101Z,2.72
2023-03-28T08:53:35.421Z,2.08
2023-03-28T08:56:07.183Z,1.60
2023-03-28T08:58:50.242Z,1.98
2023-03-28T09:03:50.504Z,1.77
2023-03-28T09:06:40.865Z,1.50
2023-03-28T09:09:49.104Z,1.38
2023-03-28T09:13:03.838Z,1.70
2023-03-28T09:16:02.450Z,1.55
2023-03-28T09:18:37.289Z,1.50
2023-03-28T09:21:23.517Z,1.33
2023-03-28T09:24:16.512Z,1.67
2023-03-28T09:27:28.238Z,1.55
2023-03-28T09:30:18.072Z,1.60
2023-03-28T09:32:46.762Z,1.80
2023-03-28T09:35:20.444Z,1.83
2023-03-28T09:37:52.068Z,1.60
2023-03-28T09:43:15.488Z,1.73
2023-03-28T09:46:00.474Z,1.83
2023-03-28T09:48:40.703Z,2.65
2023-03-28T09:51:17.232Z,1.88
2023-03-28T09:53:46.650Z,1.48
2023-03-28T09:56:49.858Z,1.25
2023-03-28T09:59:40.634Z,1.50
2023-03-28T10:02:30.037Z,1.95
2023-03-28T10:05:02.776Z,1.80
2023-03-28T10:07:33.461Z,2.22
2023-03-28T10:10:25.201Z,2.03
2023-03-28T10:13:06.345Z,2.40
2023-03-28T10:15:46.861Z,2.33
2023-03-28T10:18:19.696Z,2.67
2023-03-28T10:20:53.447Z,2.55
2023-03-28T10:23:23.775Z,2.38
2023-03-28T10:25:55.463Z,1.92
2023-03-28T10:28:33.837Z,2.00
2023-03-28T10:31:02.680Z,1.98
2023-03-28T10:33:42.989Z,1.60
2023-03-28T10:36:40.114Z,2.00
2023-03-28T10:39:26.415Z,1.60
2023-03-28T10:42:12.851Z,1.88
2023-03-28T10:45:02.711Z,1.92
2023-03-28T10:47:34.582Z,2.15
2023-03-28T10:50:19.994Z,1.70
2023-03-28T10:53:12.424Z,1.77
2023-03-28T10:56:13.898Z,2.47
2023-03-28T10:59:11.404Z,2.70
2023-03-28T11:01:50.332Z,2.13
2023-03-28T11:04:42.334Z,1.00
2023-03-28T11:07:24.884Z,0.70
2023-03-28T11:10:35.420Z,0.95
2023-03-28T11:13:23.123Z,0.95
2023-03-28T11:16:23.303Z,0.80
2023-03-28T11:19:36.473Z,0.85
2023-03-28T11:22:42.193Z,0.95
2023-03-28T11:25:23.990Z,0.90
2023-03-28T11:28:58.878Z,1.05
2023-03-28T11:31:51.563Z,0.80
2023-03-28T11:34:32.797Z,0.98
2023-03-28T11:37:07.610Z,0.80
2023-03-28T11:39:53.660Z,0.90
2023-03-28T11:42:42.381Z,1.08
2023-03-28T11:45:47.677Z,1.00
2023-03-28T11:48:37.654Z,0.88
2023-03-28T11:51:22.923Z,1.00
2023-03-28T11:54:05.671Z,1.00
2023-03-28T11:56:59.839Z,1.10
2023-03-28T11:59:55.480Z,0.90
2023-03-28T12:02:38.011Z,1.00
2023-03-28T12:07:47.741Z,1.00
2023-03-28T12:10:28.040Z,0.90
2023-03-28T12:13:05.772Z,1.00
2023-03-28T12:16:14.772Z,1.08
2023-03-28T12:19:04.350Z,1.27
2023-03-28T12:21:49.668Z,1.17
2023-03-28T12:24:46.742Z,1.02
2023-03-28T12:28:00.410Z,1.20
2023-03-28T12:30:48.925Z,1.40
2023-03-28T12:33:43.340Z,1.10
2023-03-28T12:36:34.115Z,1.10
2023-03-28T12:39:34.560Z,1.10
2023-03-28T12:42:09.775Z,1.20
2023-03-28T12:44:54.622Z,1.17
2023-03-28T12:47:52.380Z,1.08
2023-03-28T12:50:33.692Z,1.45
2023-03-28T12:53:01.718Z,1.25
2023-03-28T12:55:42.147Z,1.33
2023-03-28T12:58:25.130Z,1.25
2023-03-28T13:01:21.899Z,1.25
2023-03-28T13:04:32.412Z,1.42
2023-03-28T13:07:26.944Z,1.30
2023-03-28T13:10:21.417Z,1.20
2023-03-28T13:13:16.736Z,1.50
2023-03-28T13:16:15.275Z,1.40
2023-03-28T13:18:48.287Z,1.45
2023-03-28T13:21:46.423Z,1.30
2023-03-28T13:24:26.166Z,1.10
2023-03-28T13:27:03.428Z,1.10
2023-03-28T13:29:49.295Z,1.10
2023-03-28T13:32:26.513Z,1.60
2023-03-28T13:35:01.757Z,1.50
2023-03-28T13:37:44.697Z,1.30
2023-03-28T13:40:41.206Z,1.30
2023-03-28T13:43:40.033Z,1.30
2023-03-28T13:46:38.962Z,1.55
2023-03-28T13:49:24.840Z,1.50
2023-03-28T13:52:00.628Z,1.40
2023-03-28T13:54:28.960Z,1.70
2023-03-28T13:57:06.613Z,1.60
2023-03-28T13:59:35.847Z,1.45
2023-03-28T14:02:15.812Z,1.58
2023-03-28T14:04:54.503Z,1.60
2023-03-28T14:07:29.258Z,1.58
2023-03-28T14:09:58.288Z,1.40
2023-03-28T14:12:29.479Z,1.48
2023-03-28T14:15:00.170Z,1.70
2023-03-28T14:17:32.545Z,1.60
2023-03-28T14:20:05.555Z,1.80
2023-03-28T14:22:45.756Z,1.60
2023-03-28T14:25:22.182Z,1.70
2023-03-28T14:27:51.356Z,1.48
2023-03-28T14:30:25.376Z,1.60
2023-03-28T14:33:08.470Z,1.73
2023-03-28T14:35:37.460Z,2.05
2023-03-28T14:38:36.167Z,1.70
2023-03-28T14:41:22.461Z,1.90
2023-03-28T14:43:56.042Z,1.73
2023-03-28T14:46:27.555Z,1.80
2023-03-28T14:48:59.028Z,2.10
2023-03-28T14:51:28.135Z,1.70
2023-03-28T14:53:56.296Z,1.85
2023-03-28T14:56:26.407Z,1.70
2023-03-28T14:59:02.342Z,2.33
2023-03-28T15:01:33.401Z,2.00
2023-03-28T15:04:06.778Z,1.70
2023-03-28T15:06:35.234Z,1.70
2023-03-28T15:09:28.656Z,1.55
2023-03-28T15:11:57.432Z,1.45
2023-03-28T15:14:30.847Z,1.73
2023-03-28T15:16:59.046Z,1.95
2023-03-28T15:19:40.144Z,1.55
2023-03-28T15:22:19.782Z,1.48
2023-03-28T15:24:47.706Z,1.50
2023-03-28T15:27:32.119Z,1.92
2023-03-28T15:30:13.653Z,1.95
2023-03-28T15:32:41.302Z,1.90
2023-03-28T15:35:33.084Z,1.80
2023-03-28T15:38:26.994Z,1.90
2023-03-28T15:41:18.252Z,2.17
2023-03-28T15:43:54.715Z,1.70
2023-03-28T15:46:36.379Z,1.83
2023-03-28T15:49:06.284Z,1.73
2023-03-28T15:51:48.286Z,1.85
2023-03-28T15:54:27.931Z,2.03
2023-03-28T15:57:01.670Z,2.03
2023-03-28T15:59:42.443Z,1.67
2023-03-28T16:02:25.198Z,1.80
2023-03-28T16:05:09.513Z,1.92
2023-03-28T16:07:49.960Z,2.10
2023-03-28T16:10:20.706Z,2.40
2023-03-28T16:13:14.556Z,2.47
2023-03-28T16:15:53.332Z,1.90
2023-03-28T16:18:33.316Z,2.10
2023-03-28T16:21:02.935Z,2.22
2023-03-28T16:23:30.422Z,2.17
2023-03-28T16:25:58.111Z,1.88
2023-03-28T16:28:25.616Z,2.28
2023-03-28T16:30:53.237Z,1.95
2023-03-28T16:33:21.111Z,2.55
2023-03-28T16:35:48.559Z,2.30
2023-03-28T16:38:16.310Z,2.75
2023-03-28T16:40:45.402Z,3.03
2023-03-28T16:43:15.425Z,4.72
2023-03-28T16:45:46.886Z,5.53
2023-03-28T16:48:15.070Z,5.00
2023-03-28T16:50:49.435Z,4.63
2023-03-28T16:53:16.892Z,4.55
2023-03-28T16:55:45.522Z,2.58
2023-03-28T16:58:13.087Z,2.10
2023-03-28T17:00:44.545Z,2.00
2023-03-28T17:03:12.272Z,2.47
2023-03-28T17:05:39.968Z,2.72
2023-03-28T17:08:07.634Z,2.20
2023-03-28T17:10:39.449Z,2.22
2023-03-28T17:13:07.685Z,2.40
2023-03-28T17:15:35.656Z,2.40
2023-03-28T17:18:05.708Z,2.53
2023-03-28T17:20:33.505Z,3.30
2023-03-28T17:23:00.980Z,6.25
2023-03-28T17:25:28.403Z,8.65
2023-03-28T17:27:55.991Z,17.15
2023-03-28T17:30:23.432Z,17.90
2023-03-28T17:32:51.540Z,17.35
2023-03-28T17:35:19.146Z,15.02
2023-03-28T17:37:46.646Z,9.55
2023-03-28T17:40:15.547Z,5.90
2023-03-28T17:42:43.028Z,4.20
2023-03-28T17:45:10.799Z,3.92
2023-03-28T17:47:39.452Z,3.17
2023-03-28T17:50:07.586Z,2.92
2023-03-28T17:52:35.325Z,2.75
2023-03-28T17:55:02.970Z,3.63
2023-03-28T17:57:30.414Z,2.88
2023-03-28T17:59:58.307Z,3.08
2023-03-28T18:02:26.033Z,3.25
2023-03-28T18:05:06.596Z,3.63
2023-03-28T18:07:35.506Z,3.80
2023-03-28T18:10:08.781Z,4.15
2023-03-28T18:12:37.030Z,4.13
2023-03-28T18:15:05.454Z,4.40
2023-03-28T18:17:33.007Z,4.40
2023-03-28T18:20:00.890Z,4.15
2023-03-28T18:22:29.211Z,3.72
2023-03-28T18:24:56.752Z,4.53
2023-03-28T18:27:24.218Z,3.97
2023-03-28T18:29:51.711Z,4.32
2023-03-28T18:32:19.106Z,4.50
2023-03-28T18:34:46.691Z,4.63
2023-03-28T18:37:14.312Z,4.70
2023-03-28T18:39:42.244Z,4.85
2023-03-28T18:42:09.830Z,5.32
2023-03-28T18:44:37.450Z,5.38
2023-03-28T18:47:05.292Z,5.82
2023-03-28T18:49:32.894Z,5.18
2023-03-28T18:52:04.343Z,6.03
2023-03-28T18:54:33.187Z,5.80
2023-03-28T18:57:01.583Z,5.55
2023-03-28T18:59:29.980Z,5.57
2023-03-28T19:01:58.507Z,5.70
2023-03-28T19:04:26.541Z,6.57
2023-03-28T19:06:54.063Z,5.93
2023-03-28T19:09:22.005Z,5.47
2023-03-28T19:11:53.175Z,6.18
2023-03-28T19:14:20.711Z,5.63
2023-03-28T19:16:48.283Z,6.18
2023-03-28T19:19:16.663Z,5.50
2023-03-28T19:21:44.590Z,5.50
2023-03-28T19:24:12.335Z,5.82
2023-03-28T19:26:39.763Z,5.50
2023-03-28T19:29:07.445Z,5.38
2023-03-28T19:31:34.816Z,5.65
2023-03-28T19:34:02.450Z,6.35
2023-03-28T19:36:29.903Z,6.20
2023-03-28T19:38:57.391Z,5.60
2023-03-28T19:41:26.458Z,5.55
2023-03-28T19:43:55.344Z,5.50
2023-03-28T19:46:33.107Z,6.25
2023-03-28T19:49:03.716Z,6.70
2023-03-28T19:51:31.508Z,5.70
2023-03-28T19:53:58.973Z,6.05
2023-03-28T19:56:27.217Z,6.25
2023-03-28T19:58:54.677Z,5.78
2023-03-28T20:01:22.216Z,5.78
2023-03-28T20:03:52.995Z,5.55
2023-03-28T20:06:22.600Z,6.07
2023-03-28T20:08:50.749Z,5.68
2023-03-28T20:11:18.324Z,7.63
2023-03-28T20:13:46.429Z,6.00
2023-03-28T20:16:14.721Z,5.78
2023-03-28T20:18:42.722Z,5.53
2023-03-28T20:21:13.186Z,5.70
2023-03-28T20:23:41.091Z,6.20
2023-03-28T20:26:18.116Z,6.72
2023-03-28T20:28:52.129Z,5.93
2023-03-28T20:31:19.704Z,6.00
2023-03-28T20:33:47.212Z,5.47
2023-03-28T20:36:15.062Z,6.38
2023-03-28T20:38:42.629Z,6.03
2023-03-28T20:41:14.677Z,5.25
2023-03-28T20:43:47.752Z,5.82
2023-03-28T20:46:19.857Z,5.70
2023-03-28T20:48:53.251Z,5.38
2023-03-28T20:51:22.871Z,5.10
2023-03-28T20:53:54.767Z,5.15
2023-03-28T20:56:23.502Z,5.20
2023-03-28T20:58:53.093Z,4.63
2023-03-28T21:01:26.254Z,4.47
2023-03-28T21:03:58.881Z,5.53
2023-03-28T21:06:29.493Z,5.40
2023-03-28T21:09:01.756Z,5.28
2023-03-28T21:13:59.150Z,4.88
2023-03-28T21:16:27.683Z,5.22
2023-03-28T21:18:55.504Z,5.28
2023-03-28T21:21:23.829Z,5.47
2023-03-28T21:23:53.121Z,5.32
2023-03-28T21:26:22.793Z,5.57
2023-03-28T21:28:52.483Z,5.40
2023-03-28T21:31:27.290Z,5.22
2023-03-28T21:33:59.804Z,5.43
2023-03-28T21:36:28.034Z,5.68
2023-03-28T21:38:56.525Z,4.93
2023-03-28T21:41:24.570Z,4.82
2023-03-28T21:43:53.850Z,5.15
2023-03-28T21:46:22.264Z,5.45
2023-03-28T21:48:49.988Z,5.07
2023-03-28T21:51:17.775Z,6.00
2023-03-28T21:53:45.790Z,5.28
2023-03-28T21:56:14.858Z,5.47
2023-03-28T21:58:42.803Z,5.88
2023-03-28T22:01:13.883Z,5.40
2023-03-28T22:03:41.459Z,5.40
2023-03-28T22:06:09.454Z,6.07
2023-03-28T22:08:36.994Z,5.95
2023-03-28T22:11:13.671Z,5.60
2023-03-28T22:13:42.293Z,5.22
2023-03-28T22:16:09.874Z,5.30
2023-03-28T22:18:37.371Z,5.82
2023-03-28T22:21:05.340Z,5.88
2023-03-28T22:23:32.799Z,6.20
2023-03-28T22:26:00.362Z,6.97
2023-03-28T22:28:27.740Z,5.13
2023-03-28T22:30:56.686Z,5.65
2023-03-28T22:33:25.355Z,5.05
2023-03-28T22:35:53.387Z,4.50
2023-03-28T22:38:20.920Z,4.57
2023-03-28T22:40:48.354Z,4.53
2023-03-28T22:43:16.436Z,5.90
2023-03-28T22:45:43.936Z,4.68
2023-03-28T22:48:14.558Z,4.80
2023-03-28T22:50:47.344Z,5.93
2023-03-28T22:53:15.506Z,5.18
2023-03-28T22:55:43.986Z,4.93
2023-03-28T22:58:12.595Z,4.85
2023-03-28T23:00:40.359Z,4.55
2023-03-28T23:03:08.259Z,4.40
2023-03-28T23:05:36.282Z,4.68
2023-03-28T23:08:04.817Z,4.25
2023-03-28T23:10:32.952Z,4.50
2023-03-28T23:13:00.596Z,4.53
2023-03-28T23:15:28.287Z,5.25
2023-03-28T23:17:56.537Z,5.03
2023-03-28T23:20:24.727Z,4.38
2023-03-28T23:22:53.603Z,4.70
2023-03-28T23:25:22.157Z,4.53
2023-03-28T23:27:49.784Z,4.78
2023-03-28T23:30:17.587Z,4.65
2023-03-28T23:32:45.457Z,4.20
2023-03-28T23:35:12.971Z,4.88
2023-03-28T23:37:40.773Z,4.70
2023-03-28T23:40:15.066Z,4.90
2023-03-28T23:42:44.718Z,5.30
2023-03-28T23:45:15.101Z,4.43
2023-03-28T23:47:43.757Z,5.57
2023-03-28T23:50:12.143Z,5.53
2023-03-28T23:52:40.081Z,4.65
2023-03-28T23:55:08.911Z,4.95
2023-03-28T23:57:36.766Z,5.10
